sensor_id;sensor_type;location;lat;lon;timestamp;pressure;altitude;pressure_sealevel;temperature;humidity
34073;BME280;20346;52.702;16.886;2023-02-10T00:00:53;102352.41;;;-2.05;72.12
34073;BME280;20346;52.702;16.886;2023-02-10T00:03:39;102343.69;;;-2.07;72.17
34073;BME280;20346;52.702;16.886;2023-02-10T00:06:26;102342.59;;;-2.09;72.23
34073;BME280;20346;52.702;16.886;2023-02-10T00:09:12;102339.94;;;-2.11;72.18
34073;BME280;20346;52.702;16.886;2023-02-10T00:11:59;102344.44;;;-2.14;72.07
34073;BME280;20346;52.702;16.886;2023-02-10T00:14:45;102344.07;;;-2.17;72.16
34073;BME280;20346;52.702;16.886;2023-02-10T00:17:31;102342.09;;;-2.19;72.24
34073;BME280;20346;52.702;16.886;2023-02-10T00:20:17;102348.75;;;-2.20;72.15
34073;BME280;20346;52.702;16.886;2023-02-10T00:23:04;102346.24;;;-2.23;72.22
34073;BME280;20346;52.702;16.886;2023-02-10T00:25:50;102344.98;;;-2.24;72.23
34073;BME280;20346;52.702;16.886;2023-02-10T00:28:36;102336.45;;;-2.25;72.17
34073;BME280;20346;52.702;16.886;2023-02-10T00:31:22;102330.52;;;-2.25;72.22
34073;BME280;20346;52.702;16.886;2023-02-10T00:34:15;102334.52;;;-2.26;72.23
34073;BME280;20346;52.702;16.886;2023-02-10T00:37:01;102331.09;;;-2.27;72.24
34073;BME280;20346;52.702;16.886;2023-02-10T00:39:47;102330.45;;;-2.27;72.27
34073;BME280;20346;52.702;16.886;2023-02-10T00:42:33;102328.03;;;-2.25;72.32
34073;BME280;20346;52.702;16.886;2023-02-10T00:45:19;102329.42;;;-2.22;72.35
34073;BME280;20346;52.702;16.886;2023-02-10T00:48:06;102326.79;;;-2.18;72.45
34073;BME280;20346;52.702;16.886;2023-02-10T00:50:52;102332.83;;;-2.13;72.45
34073;BME280;20346;52.702;16.886;2023-02-10T00:53:38;102333.80;;;-2.09;72.44
34073;BME280;20346;52.702;16.886;2023-02-10T00:56:24;102336.64;;;-2.04;72.50
34073;BME280;20346;52.702;16.886;2023-02-10T00:59:11;102328.88;;;-1.98;72.44
34073;BME280;20346;52.702;16.886;2023-02-10T01:01:58;102325.69;;;-1.92;72.45
34073;BME280;20346;52.702;16.886;2023-02-10T01:04:44;102328.77;;;-1.86;72.44
34073;BME280;20346;52.702;16.886;2023-02-10T01:07:30;102323.40;;;-1.80;72.47
34073;BME280;20346;52.702;16.886;2023-02-10T01:10:16;102324.90;;;-1.75;72.50
34073;BME280;20346;52.702;16.886;2023-02-10T01:13:03;102315.13;;;-1.69;72.51
34073;BME280;20346;52.702;16.886;2023-02-10T01:15:49;102321.04;;;-1.63;72.47
34073;BME280;20346;52.702;16.886;2023-02-10T01:18:35;102322.36;;;-1.58;72.53
34073;BME280;20346;52.702;16.886;2023-02-10T01:21:22;102317.25;;;-1.53;72.52
34073;BME280;20346;52.702;16.886;2023-02-10T01:24:08;102313.76;;;-1.49;72.48
34073;BME280;20346;52.702;16.886;2023-02-10T01:26:55;102314.22;;;-1.44;72.45
34073;BME280;20346;52.702;16.886;2023-02-10T01:29:41;102314.85;;;-1.39;72.49
34073;BME280;20346;52.702;16.886;2023-02-10T01:32:27;102303.75;;;-1.36;72.53
34073;BME280;20346;52.702;16.886;2023-02-10T01:35:13;102301.14;;;-1.31;72.51
34073;BME280;20346;52.702;16.886;2023-02-10T01:37:59;102301.04;;;-1.27;72.54
34073;BME280;20346;52.702;16.886;2023-02-10T01:40:47;102296.88;;;-1.23;72.52
34073;BME280;20346;52.702;16.886;2023-02-10T01:43:52;102299.46;;;-1.19;72.50
34073;BME280;20346;52.702;16.886;2023-02-10T01:46:39;102312.59;;;-1.15;72.52
34073;BME280;20346;52.702;16.886;2023-02-10T01:49:28;102322.14;;;-1.11;72.50
34073;BME280;20346;52.702;16.886;2023-02-10T01:52:18;102324.22;;;-1.07;72.52
34073;BME280;20346;52.702;16.886;2023-02-10T01:55:10;102324.63;;;-1.02;72.52
34073;BME280;20346;52.702;16.886;2023-02-10T01:57:57;102324.36;;;-0.98;72.48
34073;BME280;20346;52.702;16.886;2023-02-10T02:00:44;102319.33;;;-0.94;72.53
34073;BME280;20346;52.702;16.886;2023-02-10T02:03:30;102313.64;;;-0.90;72.49
34073;BME280;20346;52.702;16.886;2023-02-10T02:06:16;102310.50;;;-0.86;72.45
34073;BME280;20346;52.702;16.886;2023-02-10T02:09:02;102315.25;;;-0.83;72.44
34073;BME280;20346;52.702;16.886;2023-02-10T02:14:59;102320.77;;;-0.76;72.50
34073;BME280;20346;52.702;16.886;2023-02-10T02:17:50;102319.94;;;-0.72;72.43
34073;BME280;20346;52.702;16.886;2023-02-10T02:32:57;102327.63;;;-0.56;72.48
34073;BME280;20346;52.702;16.886;2023-02-10T02:35:45;102328.78;;;-0.54;72.52
34073;BME280;20346;52.702;16.886;2023-02-10T02:38:40;102329.76;;;-0.51;72.53
34073;BME280;20346;52.702;16.886;2023-02-10T02:41:27;102324.61;;;-0.49;72.51
34073;BME280;20346;52.702;16.886;2023-02-10T02:44:13;102323.20;;;-0.47;72.54
34073;BME280;20346;52.702;16.886;2023-02-10T02:47:01;102322.64;;;-0.45;72.53
34073;BME280;20346;52.702;16.886;2023-02-10T02:56:04;102324.09;;;-0.40;72.52
34073;BME280;20346;52.702;16.886;2023-02-10T03:01:43;102328.11;;;-0.38;72.60
34073;BME280;20346;52.702;16.886;2023-02-10T03:04:32;102336.33;;;-0.37;72.57
34073;BME280;20346;52.702;16.886;2023-02-10T03:07:19;102341.68;;;-0.35;72.55
34073;BME280;20346;52.702;16.886;2023-02-10T03:10:05;102337.05;;;-0.32;72.61
34073;BME280;20346;52.702;16.886;2023-02-10T03:12:51;102335.13;;;-0.31;72.63
34073;BME280;20346;52.702;16.886;2023-02-10T03:15:37;102337.20;;;-0.30;72.63
34073;BME280;20346;52.702;16.886;2023-02-10T03:18:23;102335.27;;;-0.28;72.53
34073;BME280;20346;52.702;16.886;2023-02-10T03:21:09;102335.33;;;-0.27;72.62
34073;BME280;20346;52.702;16.886;2023-02-10T03:23:55;102340.38;;;-0.25;72.65
34073;BME280;20346;52.702;16.886;2023-02-10T03:26:41;102344.37;;;-0.23;72.64
34073;BME280;20346;52.702;16.886;2023-02-10T03:29:27;102347.02;;;-0.21;72.67
34073;BME280;20346;52.702;16.886;2023-02-10T03:32:13;102342.20;;;-0.19;72.66
34073;BME280;20346;52.702;16.886;2023-02-10T03:34:59;102346.00;;;-0.18;72.62
34073;BME280;20346;52.702;16.886;2023-02-10T03:37:44;102342.86;;;-0.17;72.61
34073;BME280;20346;52.702;16.886;2023-02-10T03:40:30;102342.77;;;-0.15;72.69
34073;BME280;20346;52.702;16.886;2023-02-10T03:43:17;102343.05;;;-0.13;72.72
34073;BME280;20346;52.702;16.886;2023-02-10T03:46:03;102345.80;;;-0.12;72.75
34073;BME280;20346;52.702;16.886;2023-02-10T03:48:50;102352.27;;;-0.12;72.72
34073;BME280;20346;52.702;16.886;2023-02-10T03:51:36;102352.11;;;-0.12;72.72
34073;BME280;20346;52.702;16.886;2023-02-10T03:54:22;102359.29;;;-0.11;72.78
34073;BME280;20346;52.702;16.886;2023-02-10T03:57:08;102364.24;;;-0.10;72.73
34073;BME280;20346;52.702;16.886;2023-02-10T03:59:55;102366.20;;;-0.09;72.81
34073;BME280;20346;52.702;16.886;2023-02-10T04:02:42;102362.15;;;-0.08;72.71
34073;BME280;20346;52.702;16.886;2023-02-10T04:05:28;102361.19;;;-0.10;72.75
34073;BME280;20346;52.702;16.886;2023-02-10T04:08:14;102357.95;;;-0.14;72.73
34073;BME280;20346;52.702;16.886;2023-02-10T04:11:00;102349.56;;;-0.18;72.71
34073;BME280;20346;52.702;16.886;2023-02-10T04:13:46;102352.95;;;-0.21;72.80
34073;BME280;20346;52.702;16.886;2023-02-10T04:16:32;102347.56;;;-0.24;72.78
34073;BME280;20346;52.702;16.886;2023-02-10T04:19:19;102342.48;;;-0.26;72.75
34073;BME280;20346;52.702;16.886;2023-02-10T04:22:05;102344.02;;;-0.29;72.80
34073;BME280;20346;52.702;16.886;2023-02-10T04:24:51;102348.34;;;-0.31;72.77
34073;BME280;20346;52.702;16.886;2023-02-10T04:27:37;102351.45;;;-0.32;72.75
34073;BME280;20346;52.702;16.886;2023-02-10T04:30:23;102354.30;;;-0.33;72.80
34073;BME280;20346;52.702;16.886;2023-02-10T04:33:09;102354.25;;;-0.34;72.84
34073;BME280;20346;52.702;16.886;2023-02-10T04:35:55;102351.52;;;-0.35;72.84
34073;BME280;20346;52.702;16.886;2023-02-10T04:38:42;102352.85;;;-0.35;72.85
34073;BME280;20346;52.702;16.886;2023-02-10T04:41:28;102352.55;;;-0.35;72.86
34073;BME280;20346;52.702;16.886;2023-02-10T04:44:14;102350.67;;;-0.35;72.80
34073;BME280;20346;52.702;16.886;2023-02-10T04:47:00;102358.12;;;-0.35;72.89
34073;BME280;20346;52.702;16.886;2023-02-10T04:49:46;102357.98;;;-0.34;72.83
34073;BME280;20346;52.702;16.886;2023-02-10T04:52:32;102361.90;;;-0.34;72.92
34073;BME280;20346;52.702;16.886;2023-02-10T04:55:19;102358.05;;;-0.33;72.89
34073;BME280;20346;52.702;16.886;2023-02-10T04:58:05;102350.98;;;-0.32;72.87
34073;BME280;20346;52.702;16.886;2023-02-10T05:00:51;102347.45;;;-0.31;72.90
34073;BME280;20346;52.702;16.886;2023-02-10T05:03:39;102344.31;;;-0.33;72.96
34073;BME280;20346;52.702;16.886;2023-02-10T05:06:26;102334.27;;;-0.34;72.95
34073;BME280;20346;52.702;16.886;2023-02-10T05:09:12;102328.30;;;-0.35;72.96
34073;BME280;20346;52.702;16.886;2023-02-10T05:11:58;102324.23;;;-0.35;73.04
34073;BME280;20346;52.702;16.886;2023-02-10T05:14:44;102330.89;;;-0.37;73.02
34073;BME280;20346;52.702;16.886;2023-02-10T05:17:30;102321.92;;;-0.40;73.01
34073;BME280;20346;52.702;16.886;2023-02-10T05:20:16;102320.55;;;-0.43;73.02
34073;BME280;20346;52.702;16.886;2023-02-10T05:23:02;102329.73;;;-0.45;73.03
34073;BME280;20346;52.702;16.886;2023-02-10T05:25:48;102335.33;;;-0.45;73.14
34073;BME280;20346;52.702;16.886;2023-02-10T05:28:35;102347.88;;;-0.45;73.17
34073;BME280;20346;52.702;16.886;2023-02-10T05:31:21;102352.85;;;-0.44;73.17
34073;BME280;20346;52.702;16.886;2023-02-10T05:34:07;102354.33;;;-0.42;73.25
34073;BME280;20346;52.702;16.886;2023-02-10T05:36:54;102360.91;;;-0.39;73.18
34073;BME280;20346;52.702;16.886;2023-02-10T05:39:40;102359.13;;;-0.38;73.24
34073;BME280;20346;52.702;16.886;2023-02-10T05:42:26;102358.05;;;-0.36;73.25
34073;BME280;20346;52.702;16.886;2023-02-10T05:45:12;102357.77;;;-0.35;73.25
34073;BME280;20346;52.702;16.886;2023-02-10T05:47:58;102352.60;;;-0.33;73.32
34073;BME280;20346;52.702;16.886;2023-02-10T05:50:44;102343.88;;;-0.32;73.21
34073;BME280;20346;52.702;16.886;2023-02-10T05:53:30;102347.13;;;-0.31;73.27
34073;BME280;20346;52.702;16.886;2023-02-10T05:56:16;102356.05;;;-0.29;73.32
34073;BME280;20346;52.702;16.886;2023-02-10T05:59:02;102369.02;;;-0.28;73.39
34073;BME280;20346;52.702;16.886;2023-02-10T06:01:49;102368.71;;;-0.27;73.38
34073;BME280;20346;52.702;16.886;2023-02-10T06:04:35;102372.35;;;-0.26;73.33
34073;BME280;20346;52.702;16.886;2023-02-10T06:07:21;102377.48;;;-0.25;73.31
34073;BME280;20346;52.702;16.886;2023-02-10T06:10:07;102389.23;;;-0.24;73.45
34073;BME280;20346;52.702;16.886;2023-02-10T06:12:53;102396.44;;;-0.22;73.43
34073;BME280;20346;52.702;16.886;2023-02-10T06:15:40;102404.16;;;-0.21;73.41
34073;BME280;20346;52.702;16.886;2023-02-10T06:18:26;102409.19;;;-0.19;73.42
34073;BME280;20346;52.702;16.886;2023-02-10T06:21:12;102410.30;;;-0.17;73.49
34073;BME280;20346;52.702;16.886;2023-02-10T06:23:58;102404.45;;;-0.16;73.50
34073;BME280;20346;52.702;16.886;2023-02-10T06:26:44;102408.57;;;-0.15;73.48
34073;BME280;20346;52.702;16.886;2023-02-10T06:29:30;102405.79;;;-0.13;73.45
34073;BME280;20346;52.702;16.886;2023-02-10T06:32:16;102408.77;;;-0.11;73.55
34073;BME280;20346;52.702;16.886;2023-02-10T06:35:03;102412.05;;;-0.10;73.55
34073;BME280;20346;52.702;16.886;2023-02-10T06:37:49;102417.17;;;-0.09;73.57
34073;BME280;20346;52.702;16.886;2023-02-10T06:40:35;102422.88;;;-0.08;73.59
34073;BME280;20346;52.702;16.886;2023-02-10T06:43:21;102428.64;;;-0.05;73.57
34073;BME280;20346;52.702;16.886;2023-02-10T06:46:08;102432.67;;;-0.02;73.61
34073;BME280;20346;52.702;16.886;2023-02-10T06:48:54;102432.98;;;0.01;73.61
34073;BME280;20346;52.702;16.886;2023-02-10T06:51:40;102437.89;;;0.04;73.66
34073;BME280;20346;52.702;16.886;2023-02-10T06:54:26;102433.30;;;0.07;73.60
34073;BME280;20346;52.702;16.886;2023-02-10T06:57:12;102434.12;;;0.09;73.67
34073;BME280;20346;52.702;16.886;2023-02-10T06:59:58;102433.77;;;0.12;73.72
34073;BME280;20346;52.702;16.886;2023-02-10T07:02:44;102443.80;;;0.16;73.63
34073;BME280;20346;52.702;16.886;2023-02-10T07:05:30;102454.98;;;0.18;73.75
34073;BME280;20346;52.702;16.886;2023-02-10T07:08:17;102452.27;;;0.22;73.74
34073;BME280;20346;52.702;16.886;2023-02-10T07:11:02;102458.92;;;0.25;73.76
34073;BME280;20346;52.702;16.886;2023-02-10T07:13:48;102470.30;;;0.28;73.78
34073;BME280;20346;52.702;16.886;2023-02-10T07:16:34;102470.31;;;0.32;73.84
34073;BME280;20346;52.702;16.886;2023-02-10T07:19:20;102467.10;;;0.35;73.85
34073;BME280;20346;52.702;16.886;2023-02-10T07:22:06;102461.38;;;0.39;73.87
34073;BME280;20346;52.702;16.886;2023-02-10T07:24:52;102456.66;;;0.43;73.87
34073;BME280;20346;52.702;16.886;2023-02-10T07:27:38;102458.76;;;0.47;73.86
34073;BME280;20346;52.702;16.886;2023-02-10T07:30:24;102464.55;;;0.50;73.90
34073;BME280;20346;52.702;16.886;2023-02-10T07:33:10;102469.29;;;0.54;73.94
34073;BME280;20346;52.702;16.886;2023-02-10T07:36:00;102473.73;;;0.57;73.99
34073;BME280;20346;52.702;16.886;2023-02-10T07:38:47;102473.56;;;0.60;73.96
34073;BME280;20346;52.702;16.886;2023-02-10T07:41:33;102472.06;;;0.64;74.05
34073;BME280;20346;52.702;16.886;2023-02-10T07:44:19;102470.02;;;0.67;74.04
34073;BME280;20346;52.702;16.886;2023-02-10T07:47:14;102471.55;;;0.71;74.04
34073;BME280;20346;52.702;16.886;2023-02-10T07:50:00;102469.90;;;0.75;74.07
34073;BME280;20346;52.702;16.886;2023-02-10T07:52:46;102476.08;;;0.79;74.11
34073;BME280;20346;52.702;16.886;2023-02-10T07:55:33;102474.44;;;0.83;74.14
34073;BME280;20346;52.702;16.886;2023-02-10T07:58:19;102470.45;;;0.88;74.18
34073;BME280;20346;52.702;16.886;2023-02-10T08:01:09;102470.74;;;0.93;74.20
34073;BME280;20346;52.702;16.886;2023-02-10T08:03:55;102467.11;;;0.98;74.18
34073;BME280;20346;52.702;16.886;2023-02-10T08:06:47;102477.48;;;1.02;74.16
34073;BME280;20346;52.702;16.886;2023-02-10T08:09:34;102481.23;;;1.06;74.18
34073;BME280;20346;52.702;16.886;2023-02-10T08:12:20;102487.80;;;1.08;74.16
34073;BME280;20346;52.702;16.886;2023-02-10T08:15:06;102487.39;;;1.10;74.19
34073;BME280;20346;52.702;16.886;2023-02-10T08:17:52;102484.95;;;1.12;74.19
34073;BME280;20346;52.702;16.886;2023-02-10T08:20:38;102486.65;;;1.15;74.23
34073;BME280;20346;52.702;16.886;2023-02-10T08:23:26;102488.50;;;1.18;74.18
34073;BME280;20346;52.702;16.886;2023-02-10T08:26:12;102479.28;;;1.20;74.24
34073;BME280;20346;52.702;16.886;2023-02-10T08:28:58;102469.40;;;1.23;74.27
34073;BME280;20346;52.702;16.886;2023-02-10T08:31:48;102474.60;;;1.25;74.27
34073;BME280;20346;52.702;16.886;2023-02-10T08:34:34;102483.72;;;1.27;74.25
34073;BME280;20346;52.702;16.886;2023-02-10T08:37:20;102491.51;;;1.30;74.31
34073;BME280;20346;52.702;16.886;2023-02-10T08:40:07;102494.80;;;1.35;74.31
34073;BME280;20346;52.702;16.886;2023-02-10T08:42:53;102500.34;;;1.37;74.27
34073;BME280;20346;52.702;16.886;2023-02-10T08:45:39;102512.34;;;1.39;74.32
34073;BME280;20346;52.702;16.886;2023-02-10T08:48:26;102514.73;;;1.39;74.32
34073;BME280;20346;52.702;16.886;2023-02-10T08:51:13;102514.30;;;1.41;74.33
34073;BME280;20346;52.702;16.886;2023-02-10T08:54:00;102508.02;;;1.44;74.38
34073;BME280;20346;52.702;16.886;2023-02-10T08:56:47;102509.04;;;1.47;74.35
34073;BME280;20346;52.702;16.886;2023-02-10T08:59:33;102509.55;;;1.51;74.41
34073;BME280;20346;52.702;16.886;2023-02-10T09:02:19;102511.26;;;1.54;74.47
34073;BME280;20346;52.702;16.886;2023-02-10T09:05:05;102513.23;;;1.56;74.42
34073;BME280;20346;52.702;16.886;2023-02-10T09:07:51;102508.05;;;1.58;74.50
34073;BME280;20346;52.702;16.886;2023-02-10T09:10:38;102502.44;;;1.61;74.56
34073;BME280;20346;52.702;16.886;2023-02-10T09:13:24;102509.41;;;1.64;74.49
34073;BME280;20346;52.702;16.886;2023-02-10T09:16:10;102520.52;;;1.66;74.47
34073;BME280;20346;52.702;16.886;2023-02-10T09:18:57;102520.51;;;1.66;74.45
34073;BME280;20346;52.702;16.886;2023-02-10T09:21:43;102517.67;;;1.67;74.53
34073;BME280;20346;52.702;16.886;2023-02-10T09:24:29;102514.64;;;1.68;74.48
34073;BME280;20346;52.702;16.886;2023-02-10T09:27:15;102517.95;;;1.69;74.52
34073;BME280;20346;52.702;16.886;2023-02-10T09:30:01;102522.58;;;1.70;74.51
34073;BME280;20346;52.702;16.886;2023-02-10T09:32:47;102525.53;;;1.68;74.53
34073;BME280;20346;52.702;16.886;2023-02-10T09:35:33;102522.77;;;1.67;74.53
34073;BME280;20346;52.702;16.886;2023-02-10T09:38:19;102519.33;;;1.66;74.52
34073;BME280;20346;52.702;16.886;2023-02-10T09:55:47;102521.19;;;1.69;74.71
34073;BME280;20346;52.702;16.886;2023-02-10T10:01:49;102523.44;;;1.73;74.71
34073;BME280;20346;52.702;16.886;2023-02-10T10:04:37;102523.35;;;1.75;74.72
34073;BME280;20346;52.702;16.886;2023-02-10T10:07:29;102522.79;;;1.77;74.80
34073;BME280;20346;52.702;16.886;2023-02-10T10:13:19;102528.46;;;1.88;74.85
34073;BME280;20346;52.702;16.886;2023-02-10T10:25:14;102531.32;;;2.09;74.93
34073;BME280;20346;52.702;16.886;2023-02-10T10:36:54;102533.85;;;2.15;74.95
34073;BME280;20346;52.702;16.886;2023-02-10T10:39:42;102531.04;;;2.17;75.01
34073;BME280;20346;52.702;16.886;2023-02-10T10:45:56;102528.35;;;2.21;75.03
34073;BME280;20346;52.702;16.886;2023-02-10T10:48:45;102527.74;;;2.22;75.00
34073;BME280;20346;52.702;16.886;2023-02-10T10:51:31;102523.46;;;2.22;75.01
34073;BME280;20346;52.702;16.886;2023-02-10T10:54:20;102525.25;;;2.20;75.04
34073;BME280;20346;52.702;16.886;2023-02-10T10:57:09;102527.77;;;2.20;75.08
34073;BME280;20346;52.702;16.886;2023-02-10T11:00:02;102530.58;;;2.21;75.05
34073;BME280;20346;52.702;16.886;2023-02-10T11:02:53;102525.54;;;2.22;75.07
34073;BME280;20346;52.702;16.886;2023-02-10T11:05:39;102522.11;;;2.22;75.09
34073;BME280;20346;52.702;16.886;2023-02-10T11:08:26;102516.88;;;2.23;75.16
34073;BME280;20346;52.702;16.886;2023-02-10T11:11:14;102520.70;;;2.25;75.19
34073;BME280;20346;52.702;16.886;2023-02-10T11:14:01;102521.48;;;2.23;75.16
34073;BME280;20346;52.702;16.886;2023-02-10T11:16:56;102523.52;;;2.23;75.20
34073;BME280;20346;52.702;16.886;2023-02-10T11:19:51;102517.54;;;2.26;75.35
34073;BME280;20346;52.702;16.886;2023-02-10T11:22:38;102513.60;;;2.29;75.27
34073;BME280;20346;52.702;16.886;2023-02-10T11:25:27;102519.15;;;2.31;75.31
34073;BME280;20346;52.702;16.886;2023-02-10T11:28:18;102521.52;;;2.35;75.25
34073;BME280;20346;52.702;16.886;2023-02-10T11:31:19;102524.30;;;2.39;75.32
34073;BME280;20346;52.702;16.886;2023-02-10T11:34:17;102522.30;;;2.40;75.30
34073;BME280;20346;52.702;16.886;2023-02-10T11:37:10;102516.28;;;2.39;75.32
34073;BME280;20346;52.702;16.886;2023-02-10T11:39:57;102511.98;;;2.38;75.39
34073;BME280;20346;52.702;16.886;2023-02-10T11:42:48;102511.30;;;2.38;75.40
34073;BME280;20346;52.702;16.886;2023-02-10T11:45:35;102512.92;;;2.40;75.44
34073;BME280;20346;52.702;16.886;2023-02-10T11:48:22;102507.52;;;2.41;75.45
34073;BME280;20346;52.702;16.886;2023-02-10T11:51:15;102501.64;;;2.43;75.41
34073;BME280;20346;52.702;16.886;2023-02-10T11:54:04;102497.71;;;2.45;75.48
34073;BME280;20346;52.702;16.886;2023-02-10T12:06:05;102503.29;;;2.67;75.59
34073;BME280;20346;52.702;16.886;2023-02-10T12:09:06;102502.35;;;2.73;75.52
34073;BME280;20346;52.702;16.886;2023-02-10T12:12:08;102505.74;;;2.76;75.51
34073;BME280;20346;52.702;16.886;2023-02-10T12:23:56;102507.14;;;2.91;75.53
34073;BME280;20346;52.702;16.886;2023-02-10T12:44:05;102517.91;;;3.15;75.63
34073;BME280;20346;52.702;16.886;2023-02-10T12:47:06;102517.52;;;3.18;75.66
34073;BME280;20346;52.702;16.886;2023-02-10T12:50:16;102519.80;;;3.19;75.70
34073;BME280;20346;52.702;16.886;2023-02-10T12:53:25;102519.06;;;3.18;75.65
34073;BME280;20346;52.702;16.886;2023-02-10T12:59:29;102526.84;;;3.17;75.70
34073;BME280;20346;52.702;16.886;2023-02-10T13:02:22;102524.61;;;3.17;75.61
34073;BME280;20346;52.702;16.886;2023-02-10T13:05:14;102519.77;;;3.15;75.78
34073;BME280;20346;52.702;16.886;2023-02-10T13:08:01;102517.65;;;3.13;75.61
34073;BME280;20346;52.702;16.886;2023-02-10T13:10:55;102517.77;;;3.11;75.66
34073;BME280;20346;52.702;16.886;2023-02-10T13:13:43;102519.80;;;3.11;75.66
34073;BME280;20346;52.702;16.886;2023-02-10T13:16:32;102521.27;;;3.10;75.65
34073;BME280;20346;52.702;16.886;2023-02-10T13:25:38;102512.64;;;3.07;75.72
34073;BME280;20346;52.702;16.886;2023-02-10T13:34:53;102512.31;;;3.12;75.78
34073;BME280;20346;52.702;16.886;2023-02-10T13:37:44;102508.55;;;3.11;75.83
34073;BME280;20346;52.702;16.886;2023-02-10T13:40:44;102507.86;;;3.11;75.83
34073;BME280;20346;52.702;16.886;2023-02-10T13:43:32;102505.88;;;3.09;75.87
34073;BME280;20346;52.702;16.886;2023-02-10T13:46:21;102506.30;;;3.07;75.89
34073;BME280;20346;52.702;16.886;2023-02-10T13:49:11;102505.25;;;3.06;75.98
34073;BME280;20346;52.702;16.886;2023-02-10T13:52:04;102508.69;;;3.07;76.02
34073;BME280;20346;52.702;16.886;2023-02-10T14:13:27;102508.27;;;3.17;76.02
34073;BME280;20346;52.702;16.886;2023-02-10T14:19:02;102508.98;;;3.21;76.03
34073;BME280;20346;52.702;16.886;2023-02-10T14:21:49;102509.55;;;3.23;76.02
34073;BME280;20346;52.702;16.886;2023-02-10T14:24:42;102503.77;;;3.23;76.08
34073;BME280;20346;52.702;16.886;2023-02-10T14:27:29;102505.02;;;3.24;76.00
34073;BME280;20346;52.702;16.886;2023-02-10T14:30:19;102502.13;;;3.24;76.08
34073;BME280;20346;52.702;16.886;2023-02-10T14:33:17;102501.67;;;3.26;76.11
34073;BME280;20346;52.702;16.886;2023-02-10T14:36:06;102505.69;;;3.28;76.05
34073;BME280;20346;52.702;16.886;2023-02-10T14:38:54;102506.58;;;3.28;76.10
34073;BME280;20346;52.702;16.886;2023-02-10T14:41:40;102506.85;;;3.31;76.09
34073;BME280;20346;52.702;16.886;2023-02-10T14:47:22;102507.35;;;3.34;76.17
34073;BME280;20346;52.702;16.886;2023-02-10T14:50:28;102501.49;;;3.37;76.20
34073;BME280;20346;52.702;16.886;2023-02-10T14:53:17;102509.45;;;3.40;76.18
34073;BME280;20346;52.702;16.886;2023-02-10T14:56:03;102510.56;;;3.42;76.16
34073;BME280;20346;52.702;16.886;2023-02-10T14:58:50;102507.16;;;3.42;76.20
34073;BME280;20346;52.702;16.886;2023-02-10T15:01:36;102510.07;;;3.42;76.13
34073;BME280;20346;52.702;16.886;2023-02-10T15:04:22;102513.09;;;3.41;76.18
34073;BME280;20346;52.702;16.886;2023-02-10T15:07:12;102508.98;;;3.41;76.19
34073;BME280;20346;52.702;16.886;2023-02-10T15:10:14;102509.32;;;3.41;76.24
34073;BME280;20346;52.702;16.886;2023-02-10T15:13:01;102508.32;;;3.41;76.22
34073;BME280;20346;52.702;16.886;2023-02-10T15:15:47;102507.11;;;3.41;76.15
34073;BME280;20346;52.702;16.886;2023-02-10T15:18:36;102507.24;;;3.40;76.16
34073;BME280;20346;52.702;16.886;2023-02-10T15:21:33;102502.29;;;3.40;76.22
34073;BME280;20346;52.702;16.886;2023-02-10T15:24:21;102498.21;;;3.40;76.27
34073;BME280;20346;52.702;16.886;2023-02-10T15:27:12;102500.29;;;3.41;76.24
34073;BME280;20346;52.702;16.886;2023-02-10T15:30:05;102501.98;;;3.41;76.29
34073;BME280;20346;52.702;16.886;2023-02-10T15:32:52;102503.36;;;3.41;76.23
34073;BME280;20346;52.702;16.886;2023-02-10T15:35:39;102502.65;;;3.40;76.19
34073;BME280;20346;52.702;16.886;2023-02-10T15:38:25;102502.80;;;3.40;76.31
34073;BME280;20346;52.702;16.886;2023-02-10T15:41:31;102504.34;;;3.40;76.32
34073;BME280;20346;52.702;16.886;2023-02-10T15:50:02;102499.20;;;3.36;76.29
34073;BME280;20346;52.702;16.886;2023-02-10T15:52:48;102490.63;;;3.34;76.33
34073;BME280;20346;52.702;16.886;2023-02-10T15:55:34;102492.46;;;3.33;76.36
34073;BME280;20346;52.702;16.886;2023-02-10T15:58:21;102494.34;;;3.33;76.35
34073;BME280;20346;52.702;16.886;2023-02-10T16:01:07;102494.24;;;3.31;76.31
34073;BME280;20346;52.702;16.886;2023-02-10T16:03:53;102496.09;;;3.30;76.37
34073;BME280;20346;52.702;16.886;2023-02-10T16:06:40;102500.64;;;3.29;76.33
34073;BME280;20346;52.702;16.886;2023-02-10T16:09:26;102505.16;;;3.27;76.34
34073;BME280;20346;52.702;16.886;2023-02-10T16:12:13;102509.04;;;3.26;76.26
34073;BME280;20346;52.702;16.886;2023-02-10T16:14:59;102512.19;;;3.24;76.29
34073;BME280;20346;52.702;16.886;2023-02-10T16:17:45;102516.39;;;3.23;76.37
34073;BME280;20346;52.702;16.886;2023-02-10T16:20:32;102517.31;;;3.21;76.40
34073;BME280;20346;52.702;16.886;2023-02-10T16:23:19;102517.44;;;3.20;76.34
34073;BME280;20346;52.702;16.886;2023-02-10T16:26:05;102518.73;;;3.19;76.35
34073;BME280;20346;52.702;16.886;2023-02-10T16:28:51;102522.06;;;3.17;76.39
34073;BME280;20346;52.702;16.886;2023-02-10T16:31:38;102523.04;;;3.16;76.43
34073;BME280;20346;52.702;16.886;2023-02-10T16:34:24;102529.46;;;3.15;76.36
34073;BME280;20346;52.702;16.886;2023-02-10T16:37:14;102524.63;;;3.13;76.41
34073;BME280;20346;52.702;16.886;2023-02-10T16:40:03;102522.88;;;3.12;76.40
34073;BME280;20346;52.702;16.886;2023-02-10T16:42:49;102526.41;;;3.10;76.35
34073;BME280;20346;52.702;16.886;2023-02-10T16:45:35;102529.75;;;3.09;76.48
34073;BME280;20346;52.702;16.886;2023-02-10T16:48:21;102525.98;;;3.09;76.48
34073;BME280;20346;52.702;16.886;2023-02-10T16:51:07;102531.04;;;3.07;76.49
34073;BME280;20346;52.702;16.886;2023-02-10T16:53:53;102525.85;;;3.06;76.46
34073;BME280;20346;52.702;16.886;2023-02-10T16:56:41;102524.95;;;3.05;76.46
34073;BME280;20346;52.702;16.886;2023-02-10T16:59:28;102530.39;;;3.04;76.46